Time;durP1;ratioP1;P1;durP2;ratioP2;P2;SDS_P1;SDS_P2;PMS_P1;PMS_P2;Temp;Humidity;BMP_temperature;BMP_pressure;BME280_temperature;BME280_humidity;BME280_pressure;Samples;Min_cycle;Max_cycle;Signal;HPM_P1;HPM_P2
2024/02/06 00:02:16;;;;;;;16.80;5.20;;;10.40;91.70;;;;;;4990121;28;20026;-77
2024/02/06 00:04:42;;;;;;;16.95;5.30;;;10.30;91.60;;;;;;5000127;28;20364;-77
2024/02/06 00:07:08;;;;;;;16.88;5.40;;;10.40;91.40;;;;;;5001711;28;20041;-77
2024/02/06 00:09:33;;;;;;;17.80;5.38;;;10.40;91.20;;;;;;4998208;28;20430;-77
2024/02/06 00:11:59;;;;;;;10.98;4.78;;;10.40;91.30;;;;;;5000898;28;20457;-77
2024/02/06 00:14:25;;;;;;;16.13;5.45;;;10.40;91.30;;;;;;4999671;28;20543;-77
2024/02/06 00:16:50;;;;;;;13.80;5.43;;;10.40;91.20;;;;;;5000123;28;20408;-77
2024/02/06 00:19:16;;;;;;;12.82;5.40;;;10.40;91.10;;;;;;5014617;28;20045;-78
2024/02/06 00:21:42;;;;;;;11.32;5.75;;;10.40;91.30;;;;;;5009836;28;20068;-76
2024/02/06 00:24:07;;;;;;;13.55;6.22;;;10.40;91.20;;;;;;5007123;28;20045;-75
2024/02/06 00:26:33;;;;;;;15.40;6.88;;;10.40;91.10;;;;;;5004645;28;20595;-76
2024/02/06 00:28:58;;;;;;;14.18;7.45;;;10.40;91.10;;;;;;5002199;28;20030;-78
2024/02/06 00:31:24;;;;;;;19.20;8.15;;;10.40;91.10;;;;;;4999463;28;20026;-78
2024/02/06 00:33:50;;;;;;;17.30;8.43;;;10.30;91.10;;;;;;4996420;28;20563;-76
2024/02/06 00:36:15;;;;;;;18.30;7.50;;;10.30;91.20;;;;;;4992366;28;20096;-78
2024/02/06 00:38:41;;;;;;;17.55;7.45;;;10.30;91.30;;;;;;4993040;28;20022;-78
2024/02/06 00:41:08;;;;;;;13.40;7.22;;;10.30;91.30;;;;;;4995939;28;20489;-77
2024/02/06 00:43:33;;;;;;;16.60;6.93;;;10.30;91.30;;;;;;5001338;28;20026;-76
2024/02/06 00:46:00;;;;;;;13.63;7.30;;;10.30;91.30;;;;;;5001641;28;20030;-76
2024/02/06 00:48:25;;;;;;;16.08;7.18;;;10.30;91.30;;;;;;4997083;28;20022;-77
2024/02/06 00:50:51;;;;;;;14.15;6.63;;;10.30;91.40;;;;;;5002949;28;20418;-78
2024/02/06 00:53:16;;;;;;;15.18;7.68;;;10.30;91.30;;;;;;5000000;28;20017;-77
2024/02/06 00:55:42;;;;;;;15.25;7.28;;;10.30;91.20;;;;;;4998965;28;20030;-76
2024/02/06 00:58:08;;;;;;;15.57;7.18;;;10.30;91.20;;;;;;4997352;28;20205;-77
2024/02/06 01:00:35;;;;;;;15.50;6.63;;;10.30;91.10;;;;;;4995216;28;20118;-75
2024/02/06 01:03:01;;;;;;;15.88;7.82;;;10.30;91.00;;;;;;4989801;28;20034;-76
2024/02/06 01:05:27;;;;;;;15.68;8.15;;;10.40;90.90;;;;;;4996627;28;20383;-76
2024/02/06 01:07:53;;;;;;;15.10;7.22;;;10.30;90.80;;;;;;4991956;28;20029;-76
2024/02/06 01:10:19;;;;;;;13.57;6.38;;;10.40;90.80;;;;;;4995904;28;20422;-77
2024/02/06 01:12:44;;;;;;;14.00;6.20;;;10.40;90.80;;;;;;4991924;28;20028;-77
2024/02/06 01:15:10;;;;;;;15.52;6.50;;;10.40;90.70;;;;;;4989272;28;20045;-76
2024/02/06 01:17:36;;;;;;;12.73;5.82;;;10.40;90.70;;;;;;4999130;28;20299;-75
2024/02/06 01:20:01;;;;;;;11.77;5.93;;;10.40;90.60;;;;;;4986828;28;20407;-76
2024/02/06 01:22:27;;;;;;;17.08;5.90;;;10.40;90.50;;;;;;4982956;28;21527;-77
2024/02/06 01:24:54;;;;;;;12.98;5.55;;;10.40;90.40;;;;;;4996896;28;20038;-77
2024/02/06 01:27:20;;;;;;;14.07;5.57;;;10.40;90.30;;;;;;4990078;28;20034;-76
2024/02/06 01:29:48;;;;;;;14.07;5.25;;;10.50;90.20;;;;;;4991363;28;20030;-75
2024/02/06 01:32:13;;;;;;;15.65;4.28;;;10.50;90.10;;;;;;4997811;28;20030;-76
2024/02/06 01:34:41;;;;;;;13.65;5.07;;;10.50;90.00;;;;;;4992210;28;20111;-76
2024/02/06 01:37:07;;;;;;;11.98;4.80;;;10.50;90.00;;;;;;4992755;28;20022;-76
2024/02/06 01:39:33;;;;;;;13.82;4.97;;;10.50;89.90;;;;;;4992310;28;20030;-77
2024/02/06 01:42:01;;;;;;;14.75;4.40;;;10.50;89.80;;;;;;4994900;28;20084;-75
2024/02/06 01:44:28;;;;;;;13.63;4.43;;;10.60;89.70;;;;;;4993788;28;20069;-76
2024/02/06 01:46:54;;;;;;;14.20;4.47;;;10.60;89.60;;;;;;4996618;28;20019;-75
2024/02/06 01:49:21;;;;;;;9.82;4.28;;;10.60;89.60;;;;;;4996330;28;20041;-76
2024/02/06 01:51:48;;;;;;;13.52;4.57;;;10.60;89.50;;;;;;4981183;28;20083;-75
2024/02/06 01:54:14;;;;;;;17.33;4.40;;;10.60;89.40;;;;;;4995080;28;20428;-75
2024/02/06 01:56:41;;;;;;;9.95;4.28;;;10.60;89.30;;;;;;4996029;28;20029;-76
2024/02/06 01:59:08;;;;;;;17.05;5.40;;;10.60;89.30;;;;;;4995423;28;20087;-75
2024/02/06 02:01:34;;;;;;;15.48;4.88;;;10.60;89.20;;;;;;4996001;28;20022;-75
2024/02/06 02:04:01;;;;;;;14.82;4.85;;;10.70;89.20;;;;;;4991081;28;20030;-75
2024/02/06 02:06:28;;;;;;;12.90;4.32;;;10.60;89.20;;;;;;4998887;28;20392;-76
2024/02/06 02:08:54;;;;;;;14.60;4.65;;;10.60;89.40;;;;;;5002878;28;20029;-76
2024/02/06 02:11:19;;;;;;;17.38;5.25;;;10.60;89.30;;;;;;4998760;28;20457;-77
2024/02/06 02:13:46;;;;;;;12.88;4.72;;;10.70;89.30;;;;;;5002348;28;20096;-76
2024/02/06 02:16:15;;;;;;;16.95;5.47;;;10.60;89.40;;;;;;4997275;28;20041;-76
2024/02/06 02:18:41;;;;;;;13.65;4.70;;;10.60;89.30;;;;;;5005945;28;20621;-78
2024/02/06 02:21:10;;;;;;;13.75;5.05;;;10.60;89.40;;;;;;4999374;28;20044;-77
2024/02/06 02:23:41;;;;;;;12.48;4.30;;;10.60;89.60;;;;;;4995241;28;20021;-76
2024/02/06 02:26:10;;;;;;;14.43;4.57;;;10.60;89.60;;;;;;4996836;28;20060;-76
2024/02/06 02:28:45;;;;;;;16.80;4.97;;;10.60;89.60;;;;;;4996151;28;20468;-75
2024/02/06 02:31:12;;;;;;;16.83;4.53;;;10.60;89.50;;;;;;4996341;28;20044;-76
2024/02/06 02:33:38;;;;;;;15.88;4.00;;;10.60;89.60;;;;;;4994416;28;20034;-75
2024/02/06 02:36:07;;;;;;;14.20;5.05;;;10.70;89.50;;;;;;4996944;28;20052;-77
2024/02/06 02:38:34;;;;;;;21.33;5.78;;;10.70;89.50;;;;;;4992890;28;20025;-77
2024/02/06 02:41:00;;;;;;;19.63;5.35;;;10.70;89.40;;;;;;4994160;28;20037;-77
2024/02/06 02:43:26;;;;;;;15.88;4.10;;;10.70;89.40;;;;;;4994383;28;20529;-76
2024/02/06 02:45:52;;;;;;;16.15;5.20;;;10.80;89.00;;;;;;4997538;28;20401;-76
2024/02/06 02:48:18;;;;;;;14.23;4.40;;;10.90;89.00;;;;;;4990729;28;20602;-77
2024/02/06 02:50:43;;;;;;;13.02;4.25;;;10.90;89.00;;;;;;4997461;28;20493;-77
2024/02/06 02:53:09;;;;;;;15.25;4.68;;;10.90;88.90;;;;;;4996716;28;20554;-76
2024/02/06 02:55:35;;;;;;;16.15;4.50;;;10.90;88.90;;;;;;4997909;28;20030;-76
2024/02/06 02:58:01;;;;;;;12.10;4.25;;;10.90;88.90;;;;;;4990988;28;20057;-75
2024/02/06 03:00:27;;;;;;;14.30;4.70;;;10.90;89.00;;;;;;4992436;28;20026;-75
2024/02/06 03:02:55;;;;;;;15.50;4.50;;;10.90;89.00;;;;;;4989079;28;20022;-76
2024/02/06 03:05:21;;;;;;;17.85;5.05;;;11.00;89.00;;;;;;4996291;28;20030;-77
2024/02/06 03:07:47;;;;;;;17.83;4.85;;;11.00;89.00;;;;;;4992956;28;20014;-75
2024/02/06 03:10:12;;;;;;;14.98;4.40;;;11.00;89.10;;;;;;4995213;28;20037;-76
2024/02/06 03:12:38;;;;;;;17.40;4.75;;;11.00;89.20;;;;;;4996754;28;20026;-77
2024/02/06 03:15:04;;;;;;;15.98;4.80;;;11.00;89.20;;;;;;4992245;28;20042;-76
2024/02/06 03:17:31;;;;;;;16.30;5.00;;;11.00;89.30;;;;;;4996724;28;20427;-75
2024/02/06 03:19:56;;;;;;;18.52;6.05;;;11.00;89.40;;;;;;4996972;28;20521;-77
2024/02/06 03:22:24;;;;;;;20.75;5.15;;;11.10;89.50;;;;;;4992982;28;20469;-75
2024/02/06 03:24:50;;;;;;;14.07;5.18;;;11.10;89.40;;;;;;4982175;28;20526;-75
2024/02/06 03:27:16;;;;;;;19.17;6.05;;;11.00;89.80;;;;;;4997011;28;20109;-75
2024/02/06 03:29:42;;;;;;;15.95;5.07;;;11.00;89.80;;;;;;4993799;28;20113;-75
2024/02/06 03:32:09;;;;;;;21.48;6.30;;;11.10;89.80;;;;;;4992992;28;20030;-76
2024/02/06 03:34:35;;;;;;;18.10;5.53;;;11.10;89.70;;;;;;4991055;28;20022;-76
2024/02/06 03:37:01;;;;;;;25.60;6.00;;;11.10;89.80;;;;;;4988493;28;20161;-77
2024/02/06 03:39:27;;;;;;;18.58;5.68;;;11.10;89.80;;;;;;4993525;28;20137;-77
2024/02/06 03:41:53;;;;;;;19.33;5.85;;;11.10;89.90;;;;;;4992978;28;20538;-77
2024/02/06 03:44:19;;;;;;;14.98;5.80;;;11.10;89.90;;;;;;4991647;28;20034;-77
2024/02/06 03:46:45;;;;;;;17.70;5.85;;;11.10;89.80;;;;;;4994698;28;20502;-74
2024/02/06 03:49:10;;;;;;;22.42;5.85;;;11.10;89.80;;;;;;4999804;28;20049;-75
2024/02/06 03:51:36;;;;;;;19.50;5.05;;;11.20;89.80;;;;;;4995167;28;20026;-77
2024/02/06 03:54:05;;;;;;;17.55;5.57;;;11.10;89.80;;;;;;4991743;28;20466;-76
2024/02/06 03:56:31;;;;;;;19.15;5.70;;;11.10;89.80;;;;;;4990117;28;20377;-76
2024/02/06 03:58:57;;;;;;;19.23;6.20;;;11.10;89.90;;;;;;4994634;28;20034;-78
2024/02/06 04:01:23;;;;;;;19.13;5.95;;;11.10;89.90;;;;;;4990555;28;20509;-75
2024/02/06 04:03:48;;;;;;;14.45;4.75;;;11.10;89.90;;;;;;4992639;28;20021;-76
2024/02/06 04:06:15;;;;;;;19.10;5.82;;;11.20;89.70;;;;;;4996938;28;20659;-76
2024/02/06 04:08:42;;;;;;;18.67;6.05;;;11.20;89.80;;;;;;4997481;28;20106;-77
2024/02/06 04:11:09;;;;;;;22.00;6.15;;;11.10;89.90;;;;;;4994380;28;20315;-75
2024/02/06 04:13:36;;;;;;;17.13;5.40;;;11.10;90.00;;;;;;4995156;28;20018;-75
2024/02/06 04:16:04;;;;;;;16.73;5.85;;;11.20;89.80;;;;;;4992606;28;20546;-75
2024/02/06 04:18:30;;;;;;;24.17;5.95;;;11.20;89.80;;;;;;4992015;28;20027;-75
2024/02/06 04:20:56;;;;;;;20.88;5.82;;;11.20;89.80;;;;;;4992180;28;20498;-75
2024/02/06 04:23:22;;;;;;;17.00;5.78;;;11.20;89.90;;;;;;4991169;28;20014;-74
2024/02/06 04:25:48;;;;;;;19.08;5.63;;;11.20;89.90;;;;;;4995237;28;21020;-75
2024/02/06 04:28:14;;;;;;;19.48;5.82;;;11.10;89.90;;;;;;4991908;28;20052;-75
2024/02/06 04:30:40;;;;;;;21.45;5.82;;;11.10;90.00;;;;;;4994134;28;20129;-76
2024/02/06 04:33:06;;;;;;;21.42;5.50;;;11.20;90.00;;;;;;4996386;28;20214;-75
2024/02/06 04:35:32;;;;;;;19.10;5.50;;;11.20;89.80;;;;;;4992398;28;20427;-75
2024/02/06 04:37:57;;;;;;;18.13;5.85;;;11.20;89.90;;;;;;4994728;28;20041;-76
2024/02/06 04:40:23;;;;;;;16.95;5.43;;;11.20;89.90;;;;;;4994183;28;20335;-75
2024/02/06 04:42:49;;;;;;;21.30;5.32;;;11.20;89.90;;;;;;4993764;28;20048;-75
2024/02/06 04:45:15;;;;;;;17.08;5.68;;;11.20;90.00;;;;;;5002011;28;20576;-76
2024/02/06 04:47:41;;;;;;;20.52;6.18;;;11.20;90.00;;;;;;5018351;28;20057;-76
2024/02/06 04:50:07;;;;;;;20.13;5.72;;;11.20;89.90;;;;;;5015308;28;20089;-76
2024/02/06 04:52:33;;;;;;;21.55;5.60;;;11.20;89.90;;;;;;5023451;28;20022;-77
2024/02/06 04:54:59;;;;;;;20.17;6.38;;;11.30;89.90;;;;;;5015298;28;20081;-76
2024/02/06 04:57:25;;;;;;;21.85;6.30;;;11.20;89.90;;;;;;5015526;28;20068;-77
2024/02/06 04:59:51;;;;;;;22.98;6.53;;;11.30;89.90;;;;;;4995178;28;20049;-75
2024/02/06 05:02:17;;;;;;;25.00;6.03;;;11.20;89.90;;;;;;4995721;28;20375;-74
2024/02/06 05:04:43;;;;;;;25.00;6.07;;;11.20;89.80;;;;;;4992985;28;20076;-73
2024/02/06 05:07:09;;;;;;;19.58;6.30;;;11.30;89.80;;;;;;4997230;28;20473;-73
2024/02/06 05:09:35;;;;;;;20.13;5.38;;;11.30;89.70;;;;;;4991304;28;20092;-77
2024/02/06 05:12:02;;;;;;;17.85;6.03;;;11.30;89.90;;;;;;4989947;28;20467;-75
2024/02/06 05:14:29;;;;;;;20.42;5.90;;;11.30;89.80;;;;;;4995180;28;20118;-73
2024/02/06 05:16:55;;;;;;;17.30;5.05;;;11.30;89.80;;;;;;4989173;28;20084;-77
2024/02/06 05:19:21;;;;;;;22.13;6.70;;;11.30;89.70;;;;;;4995550;28;20619;-76
2024/02/06 05:21:47;;;;;;;23.58;6.28;;;11.30;89.70;;;;;;4988171;28;20019;-75
2024/02/06 05:24:13;;;;;;;18.42;5.90;;;11.20;89.80;;;;;;4995714;28;20034;-76
2024/02/06 05:26:39;;;;;;;23.05;6.40;;;11.30;89.80;;;;;;5000245;28;20415;-75
2024/02/06 05:29:06;;;;;;;20.00;5.50;;;11.30;89.70;;;;;;4995507;28;21304;-75
2024/02/06 05:31:32;;;;;;;25.08;6.00;;;11.40;89.40;;;;;;5004355;28;20458;-76
2024/02/06 05:33:58;;;;;;;22.40;5.72;;;11.40;89.50;;;;;;4990827;28;20039;-75
2024/02/06 05:36:25;;;;;;;17.00;5.35;;;11.30;89.50;;;;;;4974988;28;20058;-76
2024/02/06 05:38:51;;;;;;;20.85;5.55;;;11.40;89.50;;;;;;4976334;28;22966;-75
2024/02/06 05:41:17;;;;;;;19.52;5.65;;;11.40;89.30;;;;;;4975424;28;20034;-78
2024/02/06 05:43:43;;;;;;;22.25;5.70;;;11.30;89.20;;;;;;4977090;28;20011;-77
2024/02/06 05:46:09;;;;;;;21.55;5.43;;;11.40;89.20;;;;;;4977631;28;20026;-76
2024/02/06 05:48:35;;;;;;;20.90;5.30;;;11.40;89.00;;;;;;4974359;28;20019;-75
2024/02/06 05:51:04;;;;;;;25.58;5.97;;;11.50;88.90;;;;;;4977910;28;20457;-75
2024/02/06 05:53:33;;;;;;;24.38;6.40;;;11.50;88.80;;;;;;4972684;28;20050;-75
2024/02/06 05:56:01;;;;;;;20.02;5.22;;;11.50;88.80;;;;;;4973187;28;20042;-77
2024/02/06 05:58:27;;;;;;;24.73;5.68;;;11.50;88.80;;;;;;4975535;28;20490;-78
2024/02/06 06:00:53;;;;;;;19.17;5.28;;;11.50;88.80;;;;;;4970368;28;20044;-76
2024/02/06 06:03:18;;;;;;;22.83;6.53;;;11.40;88.90;;;;;;4975632;28;20048;-75
2024/02/06 06:05:44;;;;;;;14.18;4.90;;;11.50;88.90;;;;;;4972887;28;20038;-75
2024/02/06 06:08:10;;;;;;;18.40;5.80;;;11.40;88.80;;;;;;4971471;28;20105;-75
2024/02/06 06:10:35;;;;;;;20.33;5.30;;;11.40;89.00;;;;;;4980286;28;20109;-75
2024/02/06 06:13:01;;;;;;;25.88;5.22;;;11.40;89.10;;;;;;4971402;28;20395;-75
2024/02/06 06:15:27;;;;;;;24.83;5.72;;;11.40;89.20;;;;;;4971866;28;20066;-76
2024/02/06 06:17:53;;;;;;;17.40;5.25;;;11.40;89.10;;;;;;4973998;28;20034;-77
2024/02/06 06:20:18;;;;;;;32.63;6.63;;;11.50;89.20;;;;;;4978360;28;20046;-75
2024/02/06 06:22:44;;;;;;;17.70;5.60;;;11.50;89.10;;;;;;4976788;28;20022;-76
2024/02/06 06:25:10;;;;;;;22.30;6.07;;;11.40;89.10;;;;;;4978395;28;20049;-75
2024/02/06 06:27:39;;;;;;;19.95;5.32;;;11.40;89.10;;;;;;4973218;28;20022;-75
2024/02/06 06:30:06;;;;;;;20.05;5.55;;;11.50;89.10;;;;;;4971808;28;20035;-76
2024/02/06 06:32:32;;;;;;;24.55;6.13;;;11.50;89.20;;;;;;4971885;28;20031;-78
2024/02/06 06:34:57;;;;;;;23.52;5.90;;;11.50;89.20;;;;;;4983213;28;20844;-76
2024/02/06 06:37:23;;;;;;;20.80;5.38;;;11.50;89.20;;;;;;4985122;28;20395;-76
2024/02/06 06:39:49;;;;;;;24.77;6.25;;;11.50;89.30;;;;;;4973351;28;20030;-76
2024/02/06 06:42:15;;;;;;;23.77;5.38;;;11.50;89.30;;;;;;4971848;28;20026;-74
2024/02/06 06:44:41;;;;;;;24.17;5.82;;;11.50;89.10;;;;;;4972030;28;20034;-76
2024/02/06 06:47:08;;;;;;;23.95;6.03;;;11.60;89.20;;;;;;4974198;28;20113;-77
2024/02/06 06:49:34;;;;;;;19.33;5.05;;;11.60;89.10;;;;;;4974952;28;20121;-77
2024/02/06 06:52:00;;;;;;;24.60;6.53;;;11.60;89.20;;;;;;4977944;28;20418;-75
2024/02/06 06:54:26;;;;;;;18.23;5.32;;;11.60;89.40;;;;;;4971660;28;20035;-74
2024/02/06 06:56:52;;;;;;;24.85;6.38;;;11.60;89.30;;;;;;4971684;28;20128;-75
2024/02/06 06:59:18;;;;;;;19.20;5.28;;;11.60;89.30;;;;;;4969360;28;20049;-77
2024/02/06 07:01:43;;;;;;;21.58;5.68;;;11.60;89.50;;;;;;4969326;28;20076;-75
2024/02/06 07:04:10;;;;;;;29.50;5.75;;;11.50;89.70;;;;;;4976792;28;20035;-77
2024/02/06 07:06:36;;;;;;;22.00;5.97;;;11.60;89.70;;;;;;4970436;28;20226;-76
2024/02/06 07:09:03;;;;;;;21.33;5.47;;;11.60;89.60;;;;;;4975282;28;20086;-75
2024/02/06 07:11:29;;;;;;;22.70;5.82;;;11.60;89.70;;;;;;4977387;28;20015;-73
2024/02/06 07:13:55;;;;;;;22.77;5.93;;;11.50;89.80;;;;;;4974445;28;20490;-75
2024/02/06 07:16:20;;;;;;;26.20;6.60;;;11.50;89.90;;;;;;4970818;28;20306;-74
2024/02/06 07:18:46;;;;;;;25.05;6.32;;;11.60;90.00;;;;;;4975623;28;20551;-74
2024/02/06 07:21:12;;;;;;;27.17;5.97;;;11.60;89.90;;;;;;4976562;28;20033;-74
2024/02/06 07:23:38;;;;;;;22.10;6.07;;;11.60;89.80;;;;;;4973372;28;20140;-74
2024/02/06 07:26:10;;;;;;;22.38;5.43;;;11.60;89.90;;;;;;4992324;28;20026;-74
2024/02/06 07:28:37;;;;;;;22.77;6.45;;;11.70;89.90;;;;;;4995376;28;20018;-74
2024/02/06 07:31:03;;;;;;;20.42;5.90;;;11.70;89.70;;;;;;4971864;28;20037;-74
2024/02/06 07:33:29;;;;;;;24.98;6.53;;;11.70;89.70;;;;;;4975656;28;20033;-74
2024/02/06 07:35:55;;;;;;;18.95;5.88;;;11.70;89.70;;;;;;4976467;28;20058;-74
2024/02/06 07:38:20;;;;;;;25.02;6.45;;;11.70;89.80;;;;;;4976501;28;20498;-74
2024/02/06 07:40:46;;;;;;;21.88;5.80;;;11.70;89.80;;;;;;4977712;28;20037;-74
2024/02/06 07:43:12;;;;;;;17.70;5.47;;;11.70;89.80;;;;;;4973711;28;20019;-74
2024/02/06 07:45:39;;;;;;;23.08;5.53;;;11.70;89.70;;;;;;4978728;28;20514;-74
2024/02/06 07:48:05;;;;;;;25.17;6.38;;;11.70;89.50;;;;;;4963202;28;20023;-74
2024/02/06 07:50:31;;;;;;;24.02;5.45;;;11.70;89.60;;;;;;4994863;28;20083;-74
2024/02/06 07:52:57;;;;;;;22.13;6.05;;;11.70;89.70;;;;;;4998467;28;20112;-75
2024/02/06 07:55:23;;;;;;;22.67;5.45;;;11.70;89.70;;;;;;4981447;28;20065;-74
2024/02/06 07:57:49;;;;;;;24.98;6.25;;;11.70;89.60;;;;;;4974306;28;20086;-74
2024/02/06 08:00:15;;;;;;;26.02;6.15;;;11.70;89.60;;;;;;4975259;28;20041;-74
2024/02/06 08:02:40;;;;;;;21.95;5.72;;;11.70;89.60;;;;;;4973552;28;20121;-73
2024/02/06 08:05:06;;;;;;;20.25;5.68;;;11.70;89.60;;;;;;4974914;28;20553;-74
2024/02/06 08:07:32;;;;;;;20.17;6.22;;;11.80;89.60;;;;;;4974490;28;20026;-75
2024/02/06 08:09:58;;;;;;;23.17;6.03;;;11.80;89.60;;;;;;4974288;28;20077;-74
2024/02/06 08:12:24;;;;;;;23.52;5.45;;;11.80;89.70;;;;;;4976747;28;20088;-74
2024/02/06 08:14:49;;;;;;;24.02;6.75;;;11.80;89.70;;;;;;4985213;28;20033;-74
2024/02/06 08:17:17;;;;;;;19.42;7.30;;;11.70;89.70;;;;;;4993441;28;20113;-74
2024/02/06 08:19:43;;;;;;;18.85;6.13;;;11.70;89.80;;;;;;4987214;28;20046;-74
2024/02/06 08:22:09;;;;;;;20.90;5.32;;;11.80;89.80;;;;;;4974354;28;20033;-74
2024/02/06 08:24:35;;;;;;;22.95;6.18;;;11.80;89.80;;;;;;4987746;28;20577;-73
2024/02/06 08:27:00;;;;;;;18.70;6.75;;;11.90;89.80;;;;;;4986567;28;20985;-74
2024/02/06 08:29:26;;;;;;;22.67;6.10;;;11.90;89.80;;;;;;4996534;28;20490;-74
2024/02/06 08:31:51;;;;;;;24.77;5.80;;;11.90;89.70;;;;;;4994391;28;20092;-74
2024/02/06 08:34:19;;;;;;;24.67;5.72;;;11.90;89.50;;;;;;4995892;28;20466;-74
2024/02/06 08:36:44;;;;;;;22.95;6.22;;;12.00;89.50;;;;;;4992195;28;20255;-74
2024/02/06 08:39:10;;;;;;;22.23;5.97;;;12.10;89.30;;;;;;4987559;28;20445;-75
2024/02/06 08:41:36;;;;;;;23.90;6.38;;;12.10;89.20;;;;;;4995284;28;20018;-74
2024/02/06 08:44:02;;;;;;;21.45;5.50;;;12.10;89.30;;;;;;4993594;28;20052;-74
2024/02/06 08:46:28;;;;;;;19.60;5.78;;;12.10;89.20;;;;;;4992734;28;20133;-75
2024/02/06 08:48:54;;;;;;;21.88;5.70;;;12.10;89.20;;;;;;4987879;28;20745;-74
2024/02/06 08:51:20;;;;;;;21.52;5.65;;;12.20;89.10;;;;;;4992340;28;20022;-74
2024/02/06 08:53:45;;;;;;;18.85;5.47;;;12.20;89.00;;;;;;5000139;28;20368;-74
2024/02/06 08:56:12;;;;;;;22.02;6.35;;;12.20;88.90;;;;;;4991849;28;20758;-74
2024/02/06 08:58:37;;;;;;;21.33;5.95;;;12.30;88.80;;;;;;4996660;28;20571;-74
2024/02/06 09:01:03;;;;;;;21.35;6.13;;;12.30;88.60;;;;;;4992668;28;20344;-75
2024/02/06 09:03:29;;;;;;;23.48;5.38;;;12.40;88.40;;;;;;4997376;28;20363;-75
2024/02/06 09:05:56;;;;;;;23.98;5.68;;;12.40;88.00;;;;;;4989736;28;20431;-75
2024/02/06 09:08:22;;;;;;;21.45;6.18;;;12.30;88.30;;;;;;4992194;28;20048;-75
2024/02/06 09:10:48;;;;;;;22.55;5.47;;;12.30;88.30;;;;;;4987969;28;20052;-75
2024/02/06 09:13:14;;;;;;;18.52;5.65;;;12.40;88.50;;;;;;4996584;28;20065;-75
2024/02/06 09:15:39;;;;;;;21.20;5.93;;;12.30;88.90;;;;;;4995985;28;20041;-75
2024/02/06 09:18:05;;;;;;;21.73;5.63;;;12.20;89.70;;;;;;5000208;28;20014;-75
2024/02/06 09:20:31;;;;;;;18.05;5.47;;;12.20;90.40;;;;;;4992500;28;20451;-75
2024/02/06 09:22:56;;;;;;;18.35;5.60;;;12.10;90.90;;;;;;4992260;28;20045;-75
2024/02/06 09:25:22;;;;;;;18.92;5.38;;;12.00;91.10;;;;;;4982360;28;20148;-75
2024/02/06 09:27:48;;;;;;;24.40;5.40;;;12.10;91.20;;;;;;4998245;28;20115;-75
2024/02/06 09:30:14;;;;;;;20.15;5.75;;;12.10;91.30;;;;;;4994747;28;20052;-75
2024/02/06 09:32:40;;;;;;;32.85;6.90;;;12.00;91.20;;;;;;5003954;28;20021;-75
2024/02/06 09:35:06;;;;;;;19.90;5.57;;;12.00;91.00;;;;;;4976535;28;20058;-75
2024/02/06 09:37:32;;;;;;;21.33;6.50;;;12.10;90.90;;;;;;5012982;28;20014;-74
2024/02/06 09:39:58;;;;;;;20.15;5.57;;;12.00;90.70;;;;;;4993369;28;20030;-74
2024/02/06 09:42:24;;;;;;;19.45;5.95;;;12.00;90.50;;;;;;4996933;28;20054;-74
2024/02/06 09:44:50;;;;;;;22.38;6.90;;;12.10;90.50;;;;;;4992429;28;20569;-74
2024/02/06 09:47:15;;;;;;;20.35;5.85;;;12.00;90.40;;;;;;4983534;28;20030;-74
2024/02/06 09:49:41;;;;;;;23.35;5.85;;;12.10;90.60;;;;;;4995616;28;20088;-75
2024/02/06 09:52:08;;;;;;;20.55;6.45;;;12.10;90.60;;;;;;4998371;28;20033;-74
2024/02/06 09:54:39;;;;;;;18.33;6.07;;;12.10;90.40;;;;;;4988195;28;20049;-74
2024/02/06 09:57:06;;;;;;;22.33;6.85;;;12.10;90.40;;;;;;4977253;28;20475;-74
2024/02/06 09:59:33;;;;;;;21.75;6.00;;;12.10;90.50;;;;;;4982691;28;20050;-74
2024/02/06 10:02:00;;;;;;;18.25;6.10;;;12.00;90.40;;;;;;4999357;28;20432;-74
2024/02/06 10:04:31;;;;;;;17.80;5.32;;;12.10;90.20;;;;;;4999442;28;20025;-74
2024/02/06 10:06:58;;;;;;;22.02;5.35;;;12.10;90.30;;;;;;5001924;28;20504;-74
2024/02/06 10:09:25;;;;;;;22.42;6.13;;;12.10;90.20;;;;;;5001152;28;20038;-73
2024/02/06 10:11:53;;;;;;;18.92;5.75;;;12.10;90.20;;;;;;5004776;28;20054;-75
2024/02/06 10:14:19;;;;;;;20.92;6.03;;;12.10;90.30;;;;;;4990871;28;20028;-74
2024/02/06 10:16:44;;;;;;;22.80;6.97;;;12.10;90.30;;;;;;4995375;28;20026;-75
2024/02/06 10:19:12;;;;;;;20.77;5.13;;;12.10;90.40;;;;;;4997380;28;20057;-74
2024/02/06 10:21:38;;;;;;;26.00;6.50;;;12.10;90.30;;;;;;4993666;28;20018;-74
2024/02/06 10:24:05;;;;;;;19.10;6.47;;;12.20;89.90;;;;;;4998952;28;20689;-73
2024/02/06 10:26:34;;;;;;;24.70;5.95;;;12.30;89.30;;;;;;4991831;28;20498;-74
2024/02/06 10:29:07;;;;;;;19.88;5.10;;;12.50;88.60;;;;;;4991071;28;20509;-74
2024/02/06 10:31:33;;;;;;;20.75;6.00;;;12.70;88.00;;;;;;4988368;28;20018;-74
2024/02/06 10:34:11;;;;;;;19.45;6.25;;;12.70;87.60;;;;;;4996074;28;20033;-74
2024/02/06 10:36:40;;;;;;;25.45;5.95;;;12.80;86.70;;;;;;4992939;28;20073;-74
2024/02/06 10:39:09;;;;;;;18.95;5.35;;;12.80;86.70;;;;;;5009610;28;20424;-74
2024/02/06 10:41:35;;;;;;;20.45;5.53;;;12.80;86.50;;;;;;4991430;28;20129;-75
2024/02/06 10:44:08;;;;;;;19.13;5.50;;;12.90;86.50;;;;;;4995196;28;20410;-74
2024/02/06 10:46:33;;;;;;;21.00;5.57;;;13.00;86.10;;;;;;4976201;28;20057;-73
2024/02/06 10:49:03;;;;;;;22.45;5.40;;;13.10;85.80;;;;;;4994965;28;20121;-73
2024/02/06 10:51:28;;;;;;;18.88;5.80;;;13.10;85.70;;;;;;4992751;28;20042;-74
2024/02/06 10:53:54;;;;;;;20.63;5.68;;;13.00;85.40;;;;;;4997159;28;20073;-74
2024/02/06 10:56:21;;;;;;;18.77;5.32;;;13.10;85.20;;;;;;4995827;28;20022;-74
2024/02/06 10:58:57;;;;;;;25.33;5.05;;;13.10;84.60;;;;;;4988862;28;20101;-74
2024/02/06 11:01:30;;;;;;;21.08;5.78;;;13.10;84.60;;;;;;4999240;28;20128;-73
2024/02/06 11:04:00;;;;;;;18.63;5.05;;;13.20;84.20;;;;;;5008466;28;20022;-75
2024/02/06 11:06:34;;;;;;;17.58;4.40;;;13.30;83.90;;;;;;4995760;28;20481;-75
2024/02/06 11:09:05;;;;;;;18.92;5.22;;;13.30;84.10;;;;;;5005094;28;20615;-75
2024/02/06 11:11:33;;;;;;;16.80;4.80;;;13.20;83.80;;;;;;5013992;28;20033;-73
2024/02/06 11:14:01;;;;;;;22.70;5.38;;;13.10;83.90;;;;;;5013233;28;20093;-75
2024/02/06 11:16:31;;;;;;;21.42;5.70;;;13.10;83.90;;;;;;5023938;28;20339;-74
2024/02/06 11:19:02;;;;;;;18.88;5.38;;;13.10;84.10;;;;;;4999690;28;20042;-75
2024/02/06 11:21:31;;;;;;;14.95;4.40;;;13.20;84.10;;;;;;4997263;28;20026;-75
2024/02/06 11:23:58;;;;;;;21.25;4.65;;;13.30;83.50;;;;;;4996789;28;20062;-75
2024/02/06 11:26:24;;;;;;;16.45;4.40;;;13.30;83.60;;;;;;4997273;28;20053;-74
2024/02/06 11:28:51;;;;;;;20.75;5.85;;;13.40;83.30;;;;;;4979278;28;20322;-74
2024/02/06 11:31:17;;;;;;;19.58;5.07;;;13.50;83.20;;;;;;4992029;28;20137;-75
2024/02/06 11:33:42;;;;;;;17.90;4.97;;;13.50;83.30;;;;;;4991491;28;20137;-73
2024/02/06 11:36:11;;;;;;;16.80;4.65;;;13.50;83.30;;;;;;4989630;28;20445;-74
2024/02/06 11:38:37;;;;;;;21.20;5.70;;;13.50;83.20;;;;;;4993001;28;20106;-75
2024/02/06 11:41:16;;;;;;;19.00;5.03;;;13.60;83.30;;;;;;4996978;28;20518;-75
2024/02/06 11:43:42;;;;;;;13.95;3.88;;;13.70;82.60;;;;;;4995192;28;20028;-74
2024/02/06 11:46:08;;;;;;;19.48;4.50;;;13.70;82.30;;;;;;4990077;28;20029;-74
2024/02/06 11:48:34;;;;;;;21.73;4.60;;;13.70;82.60;;;;;;4998408;28;20028;-75
2024/02/06 11:51:00;;;;;;;17.05;4.47;;;13.80;81.90;;;;;;4996012;28;20021;-74
2024/02/06 11:53:26;;;;;;;15.52;4.32;;;13.90;81.90;;;;;;5000644;28;20018;-75
2024/02/06 11:55:57;;;;;;;15.98;4.35;;;13.90;81.60;;;;;;4998737;28;20038;-73
2024/02/06 11:58:26;;;;;;;20.48;5.68;;;13.90;81.70;;;;;;4996771;28;20029;-73
2024/02/06 12:00:52;;;;;;;16.35;4.43;;;13.80;81.80;;;;;;4999148;28;20038;-73
2024/02/06 12:03:18;;;;;;;15.88;4.65;;;13.90;82.00;;;;;;4991527;28;20109;-74
2024/02/06 12:05:44;;;;;;;12.20;4.35;;;14.00;81.80;;;;;;5000575;28;20304;-75
2024/02/06 12:08:16;;;;;;;16.33;4.68;;;14.00;81.80;;;;;;4993118;28;20639;-73
2024/02/06 12:10:42;;;;;;;18.35;4.45;;;14.00;81.80;;;;;;4999889;28;20465;-73
2024/02/06 12:13:09;;;;;;;15.73;4.43;;;13.90;81.90;;;;;;4995174;28;20200;-73
2024/02/06 12:15:36;;;;;;;14.68;4.57;;;14.10;82.10;;;;;;4994319;28;20030;-75
2024/02/06 12:18:06;;;;;;;17.52;4.40;;;13.90;82.40;;;;;;4982831;28;20030;-75
2024/02/06 12:20:33;;;;;;;22.88;4.88;;;14.00;82.50;;;;;;4999489;28;20537;-75
2024/02/06 12:23:03;;;;;;;19.75;5.10;;;13.90;83.70;;;;;;4993977;28;20030;-74
2024/02/06 12:25:40;;;;;;;26.25;5.00;;;13.60;85.60;;;;;;5001398;28;20116;-74
2024/02/06 12:28:15;;;;;;;15.95;4.53;;;13.30;87.40;;;;;;4998014;28;20076;-74
2024/02/06 12:30:43;;;;;;;19.58;5.13;;;13.10;88.00;;;;;;4998630;28;20037;-74
2024/02/06 12:33:09;;;;;;;14.52;4.80;;;13.00;88.40;;;;;;4990156;28;20264;-73